This is the latest recevied weather packets stored in our database for station/object K9ABJ. If no packets are shown the sender has not sent any weather packets the latest 10 day(s).
| Time | Temp. | Humidity | Pressure | Rain* | Wind** | Luminosity | Snow |
|---|---|---|---|---|---|---|---|
| 1787595872 | 27.22° C | 54% | 1018.1 hPa | 0 mm | - | 667 W/m² | - |
| 1787595567 | 27.22° C | 51% | 1017.9 hPa | 0 mm | - | 721 W/m² | - |
| 1787595263 | 26.67° C | 55% | 1018 hPa | 0 mm | - | 228 W/m² | - |
| 1787594962 | 24.44° C | 59% | 1018.3 hPa | 0 mm | - | 722 W/m² | - |
| 1787594658 | 26.67° C | 57% | 1018 hPa | 0 mm | - | 733 W/m² | - |
| 1787594356 | 27.22° C | 53% | 1017.9 hPa | 0 mm | - | 717 W/m² | - |
| 1787594051 | 25.56° C | 57% | 1018.1 hPa | 0 mm | - | 694 W/m² | - |
| 1787593751 | 26.11° C | 55% | 1018.2 hPa | 0 mm | - | 667 W/m² | - |
| 1787593446 | 23.89° C | 60% | 1018 hPa | 0 mm | - | 632 W/m² | - |
| 1787593141 | 23.89° C | 59% | 1018 hPa | 0 mm | - | 561 W/m² | - |
| 1787592841 | 26.11° C | 57% | 1018 hPa | 0 mm | - | 685 W/m² | - |
| 1787592536 | 25° C | 57% | 1017.9 hPa | 0 mm | - | 769 W/m² | - |
| 1787592235 | 25.56° C | 58% | 1018.2 hPa | 0 mm | - | 658 W/m² | - |
| 1787591932 | 25° C | 55% | 1018.1 hPa | 0 mm | - | 502 W/m² | - |
| 1787591627 | 22.78° C | 60% | 1018.1 hPa | 0 mm | - | 573 W/m² | - |
| 1787591323 | 25° C | 57% | 1017.9 hPa | 0 mm | - | 465 W/m² | - |
| 1787591018 | 25° C | 56% | 1018 hPa | 0 mm | - | 379 W/m² | - |
| 1787590714 | 23.33° C | 60% | 1018.1 hPa | 0 mm | - | 378 W/m² | - |
| 1787590409 | 22.78° C | 63% | 1018.2 hPa | 0 mm | - | 394 W/m² | - |
| 1787590104 | 23.89° C | 63% | 1018.1 hPa | 0 mm | - | 434 W/m² | - |
| 1787589800 | 23.33° C | 64% | 1018 hPa | 0 mm | - | 549 W/m² | - |
| 1787589495 | 23.89° C | 58% | 1018 hPa | 0 mm | - | 772 W/m² | - |
| 1787589190 | 23.89° C | 62% | 1018 hPa | 0 mm | - | 601 W/m² | - |
| 1787588886 | 23.89° C | 65% | 1017.9 hPa | 0 mm | - | 396 W/m² | - |
| 1787588582 | 25° C | 60% | 1017.9 hPa | 0 mm | - | 672 W/m² | - |
* Rain latest hour (hover to see other rain measurements)
** Current wind speed in m/s (hover to see current wind gust speed)